Toquerville, Utah
Current Conditions -  °F | °C
As of 11:55 PM on Wednesday 22 Oct 2014 (Local Time) from KSGU Reporting Station
Clear Clear  
Wind Chill: 61°   Ceiling: Unl
Heat Index: 61°   Visibility: 10mi
Dew Point: 30°   Wind: 5mph
Humidity: 31%   Direction: 110°ESE
Pressure: 30.11"   Gusts: NA
Location:  37.25°N, 113.28°W
Report Text: KSGU 230555Z AUTO 11004KT 10SM CLR 16/M01 A3011 RMK AO1 10260 20160 52010
Loading
Personal Weather Stations






























Interactive Weather Map
Tropical Storm Tracking
New forecast layout! Learn more

10-Day Weather Forecast

Advertisements
Track Severe Weather on mobile